Home > Products > Valid Products > MTR

000
SAUS44 KMRX 220606 COR
MTRGDP
METAR KGDP 220551Z AUTO 05011KT 1/4SM FG VV001 13/13 A3015 RMK AO2
SLP158 60000 T01280128 10144 20122 53004 $





000
SAUS44 KMRX 220356 COR
MTRGDP
SPECI KGDP 220341Z AUTO 07022KT 1 3/4SM BR BKN002 OVC009 13/13 A3013
RMK AO2 VIS 3/4V4 T01330128





000
SAUS44 KMRX 220356 COR
MTRGDP
SPECI KGDP 220341Z AUTO 07022KT 1 3/4SM BR BKN002 OVC009 13/13 A3013
RMK AO2 VIS 3/4V4 T01330128





000
SAUS44 KMRX 211206 COR
MTRGDP
METAR KGDP 211151Z AUTO 05017KT 1/4SM FG VV002 12/12 A3014 RMK AO2
RAE1055 SLP160 P0001 60002 70002 T01220122 10133 20122 55004 $





000
SAUS44 KMRX 211206 COR
MTRGDP
METAR KGDP 211151Z AUTO 05017KT 1/4SM FG VV002 12/12 A3014 RMK AO2
RAE1055 SLP160 P0001 60002 70002 T01220122 10133 20122 55004 $





000
SAUS44 KMRX 211052 COR
MTRGDP
SPECI KGDP 211038Z AUTO 04015KT 3/4SM -RA BR BKN003 OVC014 12/12
A3014 RMK AO2 VIS 1/2V1 3/4 RAB20 P0000 T01220122 $





000
SAUS44 KMRX 211052 COR
MTRGDP
SPECI KGDP 211038Z AUTO 04015KT 3/4SM -RA BR BKN003 OVC014 12/12
A3014 RMK AO2 VIS 1/2V1 3/4 RAB20 P0000 T01220122 $





000
SAUS44 KMRX 210919 COR
MTRGDP
SPECI KGDP 210905Z AUTO 06010KT 3/4SM BR BKN002 BKN048 OVC060 12/12
A3016 RMK AO2 VIS 1/2V1 3/4 T01220122





000
SAUS44 KMRX 210858 COR
MTRGDP
SPECI KGDP 210844Z AUTO 08011KT 5SM BR SCT005 SCT044 OVC070 12/12
A3016 RMK AO2 RAB19E29 P0000 T01220122





000
SAUS44 KMRX 210843
MTRGDP
SPECI KGDP 210833Z AUTO 08012KT 3SM BR SCT003 BKN010 OVC070 13/12
A3016 RMK AO2 RAB19E29 P0000 T01280122





000
SAUS44 KMRX 210806 COR
MTRGDP
METAR KGDP 210751Z AUTO 06013KT 1 1/2SM BR BKN004 OVC046 13/12 A3017
RMK AO2 VIS 1V2 1/2 RAB07E29 SLP166 P0001 T01280122





000
SAUS44 KMRX 210757 COR
MTRGDP
SPECI KGDP 210743Z AUTO 06012KT 2 1/2SM BR SCT004 BKN007 OVC047
13/12 A3017 RMK AO2 VIS 1V5 RAB07E29 P0001 T01280122





000
SAUS44 KMRX 210635 COR
MTRGDP
SPECI KGDP 210621Z AUTO 05022G28KT 9SM BKN010 BKN013 BKN048 13/12
A3015 RMK AO2 PK WND 04028/0612 CIG 007V012 T01330117





000
SAUS44 KMRX 210505 COR
MTRGDP
METAR KGDP 210451Z AUTO 05025KT 6SM BR FEW003 SCT015 SCT075 12/12
A3015 RMK AO2 PK WND 03032/0428 SLP165 T01220117





000
SAUS44 KMRX 210342 COR
MTRGDP
SPECI KGDP 210328Z AUTO 04025KT 10SM BKN010 13/11 A3015 RMK AO2 PK
WND 04029/0323 CIG 009V014 T01280111





000
SAUS44 KMRX 201600 COR
MTRGDP
SPECI KGDP 201545Z AUTO 06016KT 3SM BR BKN020 BKN060 OVC070 13/13
A3018 RMK AO2 PK WND 05028/1502 RAE30 P0000





000
SAUS44 KMRX 201243 COR
MTRGDP
SPECI KGDP 201229Z AUTO 07011KT 1/4SM FG SCT002 BKN070 OVC110 13/13
A3016 RMK AO2 RAE02 P0000 T01330128





000
SAUS44 KMRX 201205
MTRGDP
SPECI KGDP 201155Z AUTO 04006KT 2SM -RA BR BKN004 OVC110 13/13 A3017
RMK AO2 P0000 T01330128





000
SAUS44 KMRX 201139 COR
MTRGDP
SPECI KGDP 201125Z AUTO 03004KT 3/4SM -RA BR BKN002 BKN016 OVC060
13/13 A3018 RMK AO2 RAB18 P0000 T01330128





    US Dept of Commerce
    National Oceanic and Atmospheric Administration
    National Weather Service
    1325 East West Highway
    Silver Spring, MD 20910
    Page Author: NWS Internet Services Team
Disclaimer
Information Quality
Credits
Glossary
Privacy Policy
Freedom of Information Act (FOIA)
About Us
Career Opportunities